Time;durP1;ratioP1;P1;durP2;ratioP2;P2;SDS_P1;SDS_P2;PMS_P1;PMS_P2;Temp;Humidity;BMP_temperature;BMP_pressure;BME280_temperature;BME280_humidity;BME280_pressure;Samples;Min_cycle;Max_cycle;Signal;HPM_P1;HPM_P2
2023/11/27 00:02:11;;;;;;;11.03;5.97;;;0.60;99.90;;;;;;5051652;28;20195;-54
2023/11/27 00:04:37;;;;;;;9.30;6.50;;;0.60;99.90;;;;;;5034030;28;20175;-57
2023/11/27 00:07:03;;;;;;;11.90;6.17;;;0.60;99.90;;;;;;5032087;28;20258;-61
2023/11/27 00:09:28;;;;;;;8.00;6.00;;;0.70;99.90;;;;;;5032329;28;20203;-61
2023/11/27 00:11:54;;;;;;;15.20;8.00;;;0.70;99.90;;;;;;5032349;28;20270;-61
2023/11/27 00:14:19;;;;;;;12.00;6.70;;;0.70;99.90;;;;;;5047560;28;20175;-62
2023/11/27 00:16:45;;;;;;;7.53;6.40;;;0.70;99.90;;;;;;5051783;28;20175;-61
2023/11/27 00:19:10;;;;;;;6.87;5.63;;;0.80;99.90;;;;;;5051615;28;20163;-61
2023/11/27 00:21:39;;;;;;;11.07;6.77;;;0.80;99.90;;;;;;5051278;28;20229;-61
2023/11/27 00:24:05;;;;;;;10.60;7.80;;;0.80;99.90;;;;;;5051288;28;20257;-59
2023/11/27 00:26:30;;;;;;;7.80;6.60;;;0.80;99.90;;;;;;5051083;28;20495;-59
2023/11/27 00:28:56;;;;;;;9.30;5.93;;;0.70;99.90;;;;;;5043926;28;20252;-61
2023/11/27 00:31:22;;;;;;;8.30;6.13;;;0.70;99.90;;;;;;5025093;28;20643;-56
2023/11/27 00:33:47;;;;;;;9.00;8.00;;;0.70;99.90;;;;;;5025563;28;20187;-61
2023/11/27 00:36:13;;;;;;;9.07;6.53;;;0.70;99.90;;;;;;5029205;28;20185;-63
2023/11/27 00:38:39;;;;;;;8.67;6.50;;;0.80;99.90;;;;;;5045313;28;20189;-59
2023/11/27 00:41:06;;;;;;;11.10;8.50;;;0.80;99.90;;;;;;5032034;28;20442;-58
2023/11/27 00:43:33;;;;;;;10.10;7.50;;;0.80;99.90;;;;;;5025503;28;20418;-61
2023/11/27 00:45:59;;;;;;;8.23;6.60;;;0.80;99.90;;;;;;5026572;28;20422;-62
2023/11/27 00:48:25;;;;;;;11.23;7.17;;;0.90;99.90;;;;;;5033017;28;20449;-61
2023/11/27 00:50:51;;;;;;;11.40;7.23;;;0.90;99.90;;;;;;5041419;28;20472;-61
2023/11/27 00:53:16;;;;;;;14.10;7.80;;;0.90;99.90;;;;;;5038977;28;20176;-59
2023/11/27 00:55:42;;;;;;;11.33;7.27;;;0.90;99.90;;;;;;5025881;28;20168;-62
2023/11/27 00:58:07;;;;;;;10.60;8.30;;;0.90;99.90;;;;;;5025684;28;20728;-61
2023/11/27 01:00:34;;;;;;;12.57;8.97;;;0.90;99.90;;;;;;5028088;28;20229;-61
2023/11/27 01:02:59;;;;;;;11.37;7.60;;;0.90;99.90;;;;;;5044842;28;20182;-60
2023/11/27 01:05:25;;;;;;;12.33;7.80;;;1.00;99.90;;;;;;5045012;28;20424;-59
2023/11/27 01:07:51;;;;;;;8.57;7.30;;;1.00;99.90;;;;;;5045028;28;20661;-61
2023/11/27 01:10:17;;;;;;;10.90;8.00;;;1.00;99.90;;;;;;5038378;28;20889;-57
2023/11/27 01:12:43;;;;;;;13.13;7.13;;;1.00;99.90;;;;;;5035135;28;20170;-58
2023/11/27 01:15:12;;;;;;;9.23;7.20;;;1.00;99.90;;;;;;5036872;28;20433;-59
2023/11/27 01:17:38;;;;;;;9.03;7.63;;;1.00;99.90;;;;;;5041266;28;20497;-57
2023/11/27 01:20:07;;;;;;;8.07;6.83;;;1.10;99.90;;;;;;5037531;28;20540;-56
2023/11/27 01:22:36;;;;;;;10.67;7.63;;;1.00;99.90;;;;;;5035330;28;20406;-59
2023/11/27 01:25:03;;;;;;;13.00;7.10;;;1.10;99.90;;;;;;5035910;28;20437;-60
2023/11/27 01:27:28;;;;;;;9.27;6.37;;;1.10;99.90;;;;;;5036445;28;20421;-61
2023/11/27 01:29:54;;;;;;;12.27;7.00;;;1.00;99.90;;;;;;5042279;28;21035;-59
2023/11/27 01:32:19;;;;;;;8.93;6.50;;;1.10;99.90;;;;;;5038428;28;20206;-61
2023/11/27 01:34:45;;;;;;;8.97;6.73;;;1.10;99.90;;;;;;5038253;28;20185;-61
2023/11/27 01:37:11;;;;;;;10.10;6.80;;;1.10;99.90;;;;;;5036098;28;20167;-58
2023/11/27 01:39:36;;;;;;;7.33;6.33;;;1.10;99.90;;;;;;5034502;28;20176;-61
2023/11/27 01:42:03;;;;;;;8.83;6.57;;;1.10;99.90;;;;;;5034355;28;20198;-59
2023/11/27 01:44:29;;;;;;;8.60;6.80;;;1.20;99.90;;;;;;5037671;28;20179;-62
2023/11/27 01:46:55;;;;;;;11.00;8.13;;;1.20;99.90;;;;;;5045304;28;20449;-61
2023/11/27 01:49:22;;;;;;;6.63;5.83;;;1.20;99.90;;;;;;5048177;28;20175;-62
2023/11/27 01:51:50;;;;;;;11.10;7.30;;;1.20;99.90;;;;;;5047802;28;20498;-61
2023/11/27 01:54:15;;;;;;;7.30;6.40;;;1.20;99.90;;;;;;5036342;28;20434;-61
2023/11/27 01:56:48;;;;;;;10.50;6.73;;;1.30;99.90;;;;;;5036611;28;20795;-61
2023/11/27 01:59:14;;;;;;;7.87;6.00;;;1.20;99.90;;;;;;5031597;28;20238;-62
2023/11/27 02:01:40;;;;;;;8.33;6.10;;;1.20;99.90;;;;;;5043132;28;20545;-61
2023/11/27 02:04:06;;;;;;;7.53;6.50;;;1.20;99.90;;;;;;5048294;28;20417;-61
2023/11/27 02:06:31;;;;;;;11.53;6.50;;;1.30;99.90;;;;;;5038078;28;20529;-61
2023/11/27 02:08:57;;;;;;;8.27;6.23;;;1.30;99.90;;;;;;5043993;28;20202;-59
2023/11/27 02:11:25;;;;;;;10.70;7.40;;;1.20;99.90;;;;;;5048118;28;20272;-61
2023/11/27 02:13:51;;;;;;;10.70;6.13;;;1.30;99.90;;;;;;5047528;28;21060;-59
2023/11/27 02:16:17;;;;;;;8.10;6.23;;;1.30;99.90;;;;;;5047770;28;20414;-56
2023/11/27 02:18:43;;;;;;;8.57;6.57;;;1.20;99.90;;;;;;5047488;28;20281;-57
2023/11/27 02:21:10;;;;;;;7.37;5.60;;;1.20;99.90;;;;;;5032625;28;20569;-59
2023/11/27 02:23:37;;;;;;;8.40;6.30;;;1.20;99.90;;;;;;5028165;28;20552;-58
2023/11/27 02:26:06;;;;;;;9.50;5.70;;;1.20;99.90;;;;;;5031779;28;20417;-57
2023/11/27 02:28:32;;;;;;;9.20;6.50;;;1.10;99.90;;;;;;5047530;28;21046;-60
2023/11/27 02:30:58;;;;;;;10.00;6.83;;;1.10;99.90;;;;;;5036028;28;21311;-56
2023/11/27 02:33:25;;;;;;;5.50;4.90;;;1.10;99.90;;;;;;5027858;28;20429;-61
2023/11/27 02:35:51;;;;;;;10.10;6.93;;;1.00;99.90;;;;;;5047112;28;20182;-61
2023/11/27 02:38:17;;;;;;;7.70;6.67;;;1.00;99.90;;;;;;5047255;28;20936;-60
2023/11/27 02:40:43;;;;;;;8.93;7.40;;;1.00;99.90;;;;;;5047039;28;20483;-60
2023/11/27 02:43:09;;;;;;;8.60;6.43;;;1.00;99.90;;;;;;5044520;28;20206;-60
2023/11/27 02:45:35;;;;;;;9.43;5.20;;;1.00;99.90;;;;;;5047173;28;20210;-59
2023/11/27 02:48:01;;;;;;;10.27;6.63;;;1.00;99.90;;;;;;5034120;28;20867;-60
2023/11/27 02:50:27;;;;;;;8.30;5.80;;;1.00;99.90;;;;;;5027058;28;20465;-60
2023/11/27 02:52:53;;;;;;;7.40;5.83;;;1.00;99.90;;;;;;5045659;28;20779;-61
2023/11/27 02:55:19;;;;;;;8.57;5.50;;;1.00;99.90;;;;;;5047084;28;20177;-62
2023/11/27 02:57:46;;;;;;;7.40;6.60;;;0.90;99.90;;;;;;5046911;28;20450;-60
2023/11/27 03:00:12;;;;;;;7.23;6.10;;;0.90;99.90;;;;;;5042818;28;20970;-61
2023/11/27 03:02:38;;;;;;;7.60;5.57;;;0.90;99.90;;;;;;5030917;28;20495;-63
2023/11/27 03:05:07;;;;;;;10.30;6.77;;;0.80;99.90;;;;;;5046375;28;20414;-62
2023/11/27 03:07:34;;;;;;;11.53;5.93;;;0.80;99.90;;;;;;5046748;28;20500;-61
2023/11/27 03:09:59;;;;;;;6.70;5.97;;;0.80;99.90;;;;;;5044774;28;20442;-60
2023/11/27 03:12:25;;;;;;;6.20;5.60;;;0.80;99.90;;;;;;5046541;28;20441;-60
2023/11/27 03:14:50;;;;;;;9.07;6.87;;;0.80;99.90;;;;;;5029570;28;20274;-62
2023/11/27 03:17:17;;;;;;;9.30;7.23;;;0.70;99.90;;;;;;5034495;28;20175;-61
2023/11/27 03:19:43;;;;;;;10.80;6.70;;;0.70;99.90;;;;;;5026332;28;20198;-61
2023/11/27 03:22:08;;;;;;;7.20;5.80;;;0.70;99.90;;;;;;5046592;28;20459;-61
2023/11/27 03:24:34;;;;;;;8.47;6.63;;;0.70;99.90;;;;;;5046907;28;20179;-59
2023/11/27 03:27:00;;;;;;;9.30;7.00;;;0.70;99.90;;;;;;5044958;28;20179;-58
2023/11/27 03:29:25;;;;;;;15.13;7.63;;;0.60;99.90;;;;;;5046138;28;20170;-61
2023/11/27 03:31:51;;;;;;;11.43;7.70;;;0.60;99.90;;;;;;5045452;28;20711;-60
2023/11/27 03:34:16;;;;;;;11.77;6.43;;;0.60;99.90;;;;;;5046170;28;20170;-61
2023/11/27 03:36:42;;;;;;;8.47;6.57;;;0.60;99.90;;;;;;5046140;28;20179;-58
2023/11/27 03:39:07;;;;;;;16.33;8.00;;;0.60;99.90;;;;;;5032059;28;20678;-57
2023/11/27 03:41:33;;;;;;;12.27;9.33;;;0.60;99.90;;;;;;5041976;28;20198;-62
2023/11/27 03:44:00;;;;;;;13.50;9.03;;;0.60;99.90;;;;;;5046060;28;21714;-58
2023/11/27 03:46:25;;;;;;;10.93;8.43;;;0.60;99.90;;;;;;5032205;28;20556;-59
2023/11/27 03:48:51;;;;;;;12.00;8.40;;;0.60;99.90;;;;;;5026065;28;20422;-62
2023/11/27 03:51:17;;;;;;;12.60;9.77;;;0.60;99.90;;;;;;5039132;28;20293;-61
2023/11/27 03:53:42;;;;;;;13.10;9.50;;;0.60;99.90;;;;;;5045700;28;20258;-60
2023/11/27 03:56:08;;;;;;;12.83;9.70;;;0.60;99.90;;;;;;5035356;28;20828;-59
2023/11/27 03:58:34;;;;;;;12.40;8.53;;;0.50;99.90;;;;;;5025923;28;20183;-59
2023/11/27 04:01:03;;;;;;;11.90;9.90;;;0.50;99.90;;;;;;5025973;28;20512;-58
2023/11/27 04:03:29;;;;;;;18.20;9.27;;;0.50;99.90;;;;;;5028759;28;20437;-59
2023/11/27 04:05:54;;;;;;;12.87;9.10;;;0.60;99.90;;;;;;5035424;28;21163;-58
2023/11/27 04:08:20;;;;;;;12.47;8.40;;;0.60;99.90;;;;;;5026114;28;20179;-57
2023/11/27 04:10:45;;;;;;;14.23;8.63;;;0.60;99.90;;;;;;5025621;28;20233;-60
2023/11/27 04:13:11;;;;;;;13.73;8.67;;;0.60;99.90;;;;;;5029975;28;20758;-58
2023/11/27 04:15:37;;;;;;;12.63;9.27;;;0.60;99.90;;;;;;5039605;28;20261;-55
2023/11/27 04:18:02;;;;;;;11.73;8.90;;;0.60;99.90;;;;;;5045678;28;20175;-62
2023/11/27 04:20:28;;;;;;;12.80;9.10;;;0.60;99.90;;;;;;5032356;28;20208;-61
2023/11/27 04:22:53;;;;;;;13.40;9.63;;;0.70;99.90;;;;;;5045515;28;20182;-62
2023/11/27 04:25:19;;;;;;;14.30;9.57;;;0.60;99.90;;;;;;5045385;28;20179;-62
2023/11/27 04:27:44;;;;;;;13.33;10.07;;;0.60;99.90;;;;;;5036862;28;20523;-62
2023/11/27 04:30:12;;;;;;;16.03;9.90;;;0.60;99.90;;;;;;5045249;28;20176;-61
2023/11/27 04:32:37;;;;;;;16.77;9.50;;;0.60;99.90;;;;;;5041802;28;20185;-61
2023/11/27 04:35:03;;;;;;;14.53;9.30;;;0.70;99.90;;;;;;5045037;28;20497;-62
2023/11/27 04:37:30;;;;;;;13.50;10.00;;;0.70;99.90;;;;;;5045342;28;20649;-62
2023/11/27 04:39:56;;;;;;;16.30;10.20;;;0.70;99.90;;;;;;5045030;28;20167;-62
2023/11/27 04:42:25;;;;;;;13.90;11.13;;;0.70;99.90;;;;;;5045068;28;20444;-62
2023/11/27 04:44:51;;;;;;;16.20;9.50;;;0.70;99.90;;;;;;5044832;28;20175;-62
2023/11/27 04:47:16;;;;;;;11.67;8.93;;;0.70;99.90;;;;;;5039566;28;20488;-60
2023/11/27 04:49:42;;;;;;;10.87;8.80;;;0.70;99.90;;;;;;5035237;28;20430;-62
2023/11/27 04:52:08;;;;;;;9.57;7.93;;;0.60;99.90;;;;;;5034663;28;20213;-62
2023/11/27 04:54:34;;;;;;;11.90;8.03;;;0.60;99.90;;;;;;5045311;28;20424;-62
2023/11/27 04:57:00;;;;;;;13.00;9.47;;;0.60;99.90;;;;;;5036565;28;20263;-62
2023/11/27 04:59:26;;;;;;;13.10;8.90;;;0.60;99.90;;;;;;5044830;28;20908;-62
2023/11/27 05:01:52;;;;;;;12.50;8.37;;;0.60;99.90;;;;;;5044746;28;20771;-62
2023/11/27 05:04:18;;;;;;;12.97;9.03;;;0.70;99.90;;;;;;5038108;28;20430;-62
2023/11/27 05:06:45;;;;;;;10.13;8.13;;;0.70;99.90;;;;;;5024787;28;20426;-60
2023/11/27 05:09:12;;;;;;;10.10;7.80;;;0.60;99.90;;;;;;5028812;28;20410;-62
2023/11/27 05:11:38;;;;;;;8.87;7.17;;;0.60;99.90;;;;;;5024712;28;21108;-62
2023/11/27 05:14:04;;;;;;;10.80;7.67;;;0.50;99.90;;;;;;5035685;28;20410;-62
2023/11/27 05:16:30;;;;;;;11.10;8.67;;;0.50;99.90;;;;;;5044894;28;20547;-62
2023/11/27 05:18:56;;;;;;;10.13;8.03;;;0.50;99.90;;;;;;5042484;28;20439;-65
2023/11/27 05:21:21;;;;;;;9.10;7.00;;;0.50;99.90;;;;;;5025186;28;20219;-62
2023/11/27 05:23:47;;;;;;;9.30;8.10;;;0.50;99.90;;;;;;5025034;28;20184;-60
2023/11/27 05:26:13;;;;;;;10.77;8.30;;;0.50;99.90;;;;;;5024766;28;20176;-65
2023/11/27 05:28:40;;;;;;;37.50;22.60;;;0.60;99.90;;;;;;5024964;28;20218;-64
2023/11/27 05:31:06;;;;;;;12.87;9.10;;;0.70;99.90;;;;;;5024649;28;20480;-60
2023/11/27 05:33:32;;;;;;;8.47;7.27;;;0.70;99.90;;;;;;5031141;28;20421;-61
2023/11/27 05:35:58;;;;;;;9.97;7.73;;;0.70;99.90;;;;;;5044391;28;20418;-61
2023/11/27 05:38:24;;;;;;;9.70;7.03;;;0.70;99.90;;;;;;5029730;28;20515;-63
2023/11/27 05:40:53;;;;;;;9.27;6.83;;;0.70;99.90;;;;;;5025075;28;21048;-62
2023/11/27 05:43:19;;;;;;;12.20;7.60;;;0.60;99.90;;;;;;5029631;28;20193;-61
2023/11/27 05:45:45;;;;;;;8.03;6.77;;;0.60;99.90;;;;;;5036583;28;20421;-61
2023/11/27 05:48:11;;;;;;;11.33;6.97;;;0.60;99.90;;;;;;5031209;28;20497;-64
2023/11/27 05:50:41;;;;;;;12.13;7.50;;;0.60;99.90;;;;;;5023302;28;20548;-62
2023/11/27 05:53:12;;;;;;;8.30;6.77;;;0.60;99.90;;;;;;5031355;28;20427;-62
2023/11/27 05:55:40;;;;;;;10.40;8.43;;;0.60;99.90;;;;;;5032340;28;21165;-61
2023/11/27 05:58:06;;;;;;;8.50;7.43;;;0.60;99.90;;;;;;5043395;28;20436;-63
2023/11/27 06:00:32;;;;;;;9.10;7.27;;;0.50;99.90;;;;;;5041940;28;20434;-63
2023/11/27 06:02:58;;;;;;;9.97;6.97;;;0.50;99.90;;;;;;5034456;28;20904;-62
2023/11/27 06:05:24;;;;;;;8.50;6.57;;;0.50;99.90;;;;;;5045840;28;20918;-60
2023/11/27 06:07:50;;;;;;;7.73;6.93;;;0.50;99.90;;;;;;5047283;28;20405;-61
2023/11/27 06:10:16;;;;;;;9.77;6.80;;;0.50;99.90;;;;;;5028023;28;20951;-62
2023/11/27 06:12:43;;;;;;;7.17;6.47;;;0.50;99.90;;;;;;5027687;28;20423;-60
2023/11/27 06:15:14;;;;;;;10.53;8.23;;;0.40;99.90;;;;;;5030947;28;20854;-61
2023/11/27 06:17:40;;;;;;;8.67;7.10;;;0.40;99.90;;;;;;5027799;28;20420;-64
2023/11/27 06:20:09;;;;;;;8.40;6.73;;;0.40;99.90;;;;;;5027715;28;20423;-62
2023/11/27 06:22:36;;;;;;;9.27;7.20;;;0.50;99.90;;;;;;5034064;28;21088;-61
2023/11/27 06:25:02;;;;;;;8.63;6.73;;;0.50;99.90;;;;;;5033448;28;20414;-61
2023/11/27 06:27:27;;;;;;;12.63;7.90;;;0.50;99.90;;;;;;5047580;28;20508;-62
2023/11/27 06:29:53;;;;;;;9.50;6.57;;;0.40;99.90;;;;;;5047409;28;20925;-61
2023/11/27 06:32:20;;;;;;;13.50;7.10;;;0.50;99.90;;;;;;5045045;28;20261;-61
2023/11/27 06:34:46;;;;;;;13.17;7.10;;;0.50;99.90;;;;;;5047167;28;20171;-62
2023/11/27 06:37:12;;;;;;;7.70;6.70;;;0.60;99.90;;;;;;5035558;28;20446;-61
2023/11/27 06:39:37;;;;;;;7.53;6.63;;;0.60;99.90;;;;;;5027411;28;20453;-62
2023/11/27 06:42:03;;;;;;;8.27;6.60;;;0.60;99.90;;;;;;5037122;28;20209;-61
2023/11/27 06:44:29;;;;;;;10.23;6.53;;;0.60;99.90;;;;;;5047062;28;20179;-64
2023/11/27 06:46:54;;;;;;;8.07;5.93;;;0.60;99.90;;;;;;5046843;28;20175;-62
2023/11/27 06:49:20;;;;;;;9.23;6.10;;;0.60;99.90;;;;;;5031426;28;20876;-62
2023/11/27 06:51:46;;;;;;;8.13;6.53;;;0.70;99.90;;;;;;5026831;28;20212;-62
2023/11/27 06:54:11;;;;;;;9.10;6.33;;;0.70;99.90;;;;;;5039122;28;20683;-62
2023/11/27 06:56:37;;;;;;;21.60;7.10;;;0.70;99.90;;;;;;5027182;28;20177;-61
2023/11/27 06:59:04;;;;;;;9.37;6.13;;;0.80;99.90;;;;;;5035408;28;20580;-62
2023/11/27 07:01:29;;;;;;;8.43;6.53;;;0.80;99.90;;;;;;5047042;28;20205;-62
2023/11/27 07:03:56;;;;;;;11.10;6.93;;;0.80;99.90;;;;;;5046260;28;20421;-62
2023/11/27 07:06:21;;;;;;;7.63;6.90;;;0.80;99.90;;;;;;5044499;28;20289;-61
2023/11/27 07:08:48;;;;;;;8.97;6.57;;;0.90;99.90;;;;;;5046645;28;20487;-61
2023/11/27 07:11:13;;;;;;;8.20;5.47;;;0.90;99.90;;;;;;5046289;28;20533;-62
2023/11/27 07:13:39;;;;;;;7.30;5.50;;;0.90;99.90;;;;;;5046575;28;20919;-62
2023/11/27 07:16:06;;;;;;;7.43;5.90;;;1.00;99.90;;;;;;5044600;28;20175;-62
2023/11/27 07:18:31;;;;;;;8.00;6.17;;;1.00;99.90;;;;;;5032523;28;20430;-60
2023/11/27 07:21:00;;;;;;;5.93;5.00;;;1.10;99.90;;;;;;5040129;28;20441;-63
2023/11/27 07:23:26;;;;;;;6.10;5.03;;;1.10;99.90;;;;;;5038249;28;20184;-62
2023/11/27 07:25:53;;;;;;;6.33;5.73;;;1.10;99.90;;;;;;5037341;28;20516;-61
2023/11/27 07:28:18;;;;;;;8.53;5.93;;;1.10;99.90;;;;;;5041168;28;20421;-62
2023/11/27 07:30:45;;;;;;;8.17;5.90;;;1.10;99.90;;;;;;5047891;28;20457;-61
2023/11/27 07:33:12;;;;;;;9.27;5.50;;;1.10;99.90;;;;;;5035618;28;20221;-62
2023/11/27 07:35:38;;;;;;;6.77;5.77;;;1.10;99.90;;;;;;5051754;28;20419;-62
2023/11/27 07:38:03;;;;;;;6.33;5.27;;;1.10;99.90;;;;;;5042199;28;20946;-62
2023/11/27 07:40:29;;;;;;;8.00;5.77;;;1.00;99.90;;;;;;5051124;28;20450;-62
2023/11/27 07:42:55;;;;;;;6.27;5.60;;;1.10;99.90;;;;;;5051974;28;20201;-62
2023/11/27 07:45:21;;;;;;;5.87;5.23;;;1.10;99.90;;;;;;5059455;28;20654;-62
2023/11/27 07:47:46;;;;;;;11.17;5.70;;;1.10;99.90;;;;;;5032161;28;20635;-61
2023/11/27 07:50:12;;;;;;;9.73;5.90;;;1.10;99.90;;;;;;5031953;28;20255;-61
2023/11/27 07:52:38;;;;;;;5.87;5.27;;;1.10;99.90;;;;;;5032154;28;20505;-61
2023/11/27 07:55:05;;;;;;;6.20;5.60;;;1.20;99.90;;;;;;5030515;28;20525;-61
2023/11/27 07:57:32;;;;;;;9.33;5.73;;;1.20;99.90;;;;;;5039397;28;20229;-62
2023/11/27 07:59:59;;;;;;;5.30;4.80;;;1.20;99.90;;;;;;5043112;28;20422;-62
2023/11/27 08:02:25;;;;;;;7.90;6.13;;;1.30;99.90;;;;;;5040844;28;20461;-62
2023/11/27 08:04:51;;;;;;;10.17;5.37;;;1.30;99.90;;;;;;5039891;28;20414;-61
2023/11/27 08:07:16;;;;;;;6.57;4.40;;;1.30;99.90;;;;;;5039699;28;20190;-64
2023/11/27 08:09:46;;;;;;;5.93;4.70;;;1.30;99.90;;;;;;5049187;28;20183;-62
2023/11/27 08:12:12;;;;;;;6.13;5.30;;;1.20;99.90;;;;;;5048980;28;20221;-62
2023/11/27 08:14:39;;;;;;;5.90;4.77;;;1.30;99.90;;;;;;5051224;28;20813;-62
2023/11/27 08:17:05;;;;;;;8.53;4.70;;;1.30;99.90;;;;;;5044803;28;20398;-62
2023/11/27 08:19:31;;;;;;;8.73;5.70;;;1.40;99.90;;;;;;5050566;28;20430;-62
2023/11/27 08:22:02;;;;;;;7.67;5.60;;;1.40;99.90;;;;;;5051022;28;20660;-61
2023/11/27 08:24:28;;;;;;;6.13;4.97;;;1.50;99.90;;;;;;5051883;28;20421;-63
2023/11/27 08:26:56;;;;;;;8.60;5.60;;;1.70;99.90;;;;;;5051528;28;20417;-63
2023/11/27 08:29:22;;;;;;;8.03;5.50;;;1.60;99.90;;;;;;5041452;28;20259;-63
2023/11/27 08:31:48;;;;;;;6.17;5.57;;;1.60;99.90;;;;;;5042295;28;20548;-62
2023/11/27 08:34:13;;;;;;;6.93;5.97;;;1.70;99.90;;;;;;5051279;28;20676;-62
2023/11/27 08:36:39;;;;;;;9.67;4.90;;;1.70;99.90;;;;;;5051559;28;20202;-62
2023/11/27 08:39:05;;;;;;;7.23;4.63;;;1.70;99.90;;;;;;5048639;28;20665;-63
2023/11/27 08:41:31;;;;;;;8.00;5.97;;;1.60;99.90;;;;;;5039518;28;20206;-63
2023/11/27 08:43:56;;;;;;;5.87;5.37;;;1.60;99.90;;;;;;5041207;28;20421;-63
2023/11/27 08:46:22;;;;;;;6.37;4.93;;;1.60;99.90;;;;;;5043035;28;20191;-63
2023/11/27 08:48:48;;;;;;;8.83;4.90;;;1.70;99.90;;;;;;5045318;28;20174;-63
2023/11/27 08:51:14;;;;;;;6.40;5.00;;;1.60;99.90;;;;;;5030890;28;20706;-62
2023/11/27 08:53:40;;;;;;;8.30;5.60;;;1.60;99.90;;;;;;5031278;28;20175;-63
2023/11/27 08:56:07;;;;;;;6.90;4.37;;;1.60;99.90;;;;;;5037860;28;20245;-63
2023/11/27 08:58:34;;;;;;;6.37;5.70;;;1.60;99.90;;;;;;5047782;28;20415;-63
2023/11/27 09:01:04;;;;;;;6.43;5.47;;;1.50;99.90;;;;;;5038440;28;20495;-63
2023/11/27 09:03:30;;;;;;;6.77;4.83;;;1.50;99.90;;;;;;5030000;28;20450;-61
2023/11/27 09:05:57;;;;;;;5.83;5.23;;;1.60;99.90;;;;;;5039166;28;20413;-63
2023/11/27 09:08:22;;;;;;;5.67;5.07;;;1.60;99.90;;;;;;5035362;28;20233;-63
2023/11/27 09:10:48;;;;;;;6.87;5.27;;;1.60;99.90;;;;;;5041580;28;20470;-63
2023/11/27 09:13:14;;;;;;;7.63;4.80;;;1.60;99.90;;;;;;5041397;28;20244;-63
2023/11/27 09:15:41;;;;;;;7.00;5.40;;;1.60;99.90;;;;;;5039098;28;20648;-65
2023/11/27 09:18:07;;;;;;;7.20;6.13;;;1.60;99.90;;;;;;5030654;28;20414;-65
2023/11/27 09:20:33;;;;;;;9.30;5.70;;;1.60;99.90;;;;;;5030862;28;20438;-62
2023/11/27 09:22:59;;;;;;;8.63;5.53;;;1.70;99.90;;;;;;5030754;28;20424;-62
2023/11/27 09:25:24;;;;;;;10.10;5.90;;;1.70;99.90;;;;;;5031114;28;20229;-62
2023/11/27 09:27:50;;;;;;;6.87;5.17;;;1.80;99.90;;;;;;5044194;28;20249;-63
2023/11/27 09:30:15;;;;;;;5.87;4.80;;;1.80;99.90;;;;;;5029222;28;20176;-63
2023/11/27 09:32:41;;;;;;;6.50;5.43;;;1.80;99.90;;;;;;5042008;28;20538;-63
2023/11/27 09:35:09;;;;;;;8.67;5.40;;;1.80;99.90;;;;;;5041795;28;20548;-63
2023/11/27 09:37:35;;;;;;;6.40;5.43;;;1.80;99.90;;;;;;5043182;28;20171;-61
2023/11/27 09:40:03;;;;;;;6.77;5.23;;;1.80;99.90;;;;;;5050787;28;20915;-62
2023/11/27 09:42:35;;;;;;;9.13;5.10;;;1.80;99.90;;;;;;5041032;28;20460;-61
2023/11/27 09:45:10;;;;;;;5.63;5.10;;;1.90;99.90;;;;;;5042499;28;20418;-60
2023/11/27 09:47:37;;;;;;;5.97;4.60;;;1.90;99.90;;;;;;5046069;28;20404;-61
2023/11/27 09:50:08;;;;;;;8.73;4.10;;;2.00;99.90;;;;;;5043657;28;20475;-61
2023/11/27 09:52:59;;;;;;;5.70;5.10;;;2.00;99.90;;;;;;5053881;28;20471;-61
2023/11/27 09:55:31;;;;;;;7.13;5.20;;;2.10;99.90;;;;;;5054287;28;20445;-61
2023/11/27 09:57:59;;;;;;;5.27;4.37;;;2.10;99.90;;;;;;5054039;28;20409;-59
2023/11/27 10:00:25;;;;;;;6.37;5.07;;;2.20;99.90;;;;;;5051427;28;20520;-58
2023/11/27 10:02:51;;;;;;;9.70;4.90;;;2.20;99.90;;;;;;5053896;28;20509;-62
2023/11/27 10:05:18;;;;;;;10.23;6.00;;;2.40;99.90;;;;;;5046985;28;20642;-61
2023/11/27 10:07:46;;;;;;;8.47;5.63;;;2.60;99.90;;;;;;5040915;28;20536;-59
2023/11/27 10:10:14;;;;;;;6.50;5.90;;;2.50;99.90;;;;;;5041367;28;20430;-61
2023/11/27 10:12:44;;;;;;;6.77;5.80;;;2.60;99.90;;;;;;5041803;28;20406;-61
2023/11/27 10:15:11;;;;;;;9.13;5.83;;;2.50;99.90;;;;;;5043160;28;20451;-59
2023/11/27 10:17:38;;;;;;;9.07;6.40;;;2.50;99.90;;;;;;5038904;28;20981;-60
2023/11/27 10:20:04;;;;;;;7.20;6.20;;;2.50;99.90;;;;;;5047488;28;20738;-60
2023/11/27 10:22:32;;;;;;;8.40;5.70;;;2.50;99.90;;;;;;5050610;28;20496;-60
2023/11/27 10:25:00;;;;;;;14.03;5.93;;;2.50;99.90;;;;;;5045295;28;20435;-63
2023/11/27 10:27:26;;;;;;;7.90;6.53;;;2.50;99.90;;;;;;5048134;28;21005;-59
2023/11/27 10:29:52;;;;;;;8.47;5.90;;;2.60;99.90;;;;;;5038626;28;20407;-59
2023/11/27 10:32:22;;;;;;;8.97;6.93;;;2.50;99.90;;;;;;5046335;28;20203;-56
2023/11/27 10:34:49;;;;;;;8.90;7.07;;;2.60;99.90;;;;;;5045563;28;20422;-58
2023/11/27 10:37:16;;;;;;;7.93;6.20;;;2.60;99.90;;;;;;5041492;28;20414;-61
2023/11/27 10:39:41;;;;;;;8.60;6.33;;;2.90;99.90;;;;;;5042392;28;20788;-62
2023/11/27 10:42:11;;;;;;;12.47;7.77;;;3.00;99.90;;;;;;5043557;28;20444;-62
2023/11/27 10:44:37;;;;;;;13.33;9.57;;;3.00;99.90;;;;;;5043374;28;20175;-60
2023/11/27 10:47:10;;;;;;;11.30;9.33;;;2.90;99.90;;;;;;5045781;28;20840;-62
2023/11/27 10:49:39;;;;;;;10.77;7.50;;;3.00;99.90;;;;;;5045946;28;20413;-60
2023/11/27 10:52:06;;;;;;;8.33;6.63;;;3.00;99.90;;;;;;5044492;28;20466;-62
2023/11/27 10:54:34;;;;;;;11.83;9.10;;;3.20;99.90;;;;;;5044721;28;20509;-64
2023/11/27 10:57:06;;;;;;;16.60;8.10;;;3.10;99.90;;;;;;5052909;28;20852;-61
2023/11/27 10:59:33;;;;;;;13.50;8.50;;;2.90;99.90;;;;;;5045016;28;20412;-62
2023/11/27 11:02:02;;;;;;;14.83;8.20;;;3.00;99.90;;;;;;5046107;28;20461;-62
2023/11/27 11:04:51;;;;;;;9.80;8.10;;;3.00;99.90;;;;;;5043667;28;20491;-59
2023/11/27 11:07:36;;;;;;;11.47;7.93;;;3.10;99.90;;;;;;5044608;28;20929;-62
2023/11/27 11:10:06;;;;;;;13.90;9.07;;;3.00;99.90;;;;;;5049459;28;20432;-62
2023/11/27 11:12:32;;;;;;;12.57;7.63;;;3.20;99.90;;;;;;5043698;28;20461;-61
2023/11/27 11:14:58;;;;;;;12.00;8.17;;;3.10;99.90;;;;;;5044713;28;20475;-62
2023/11/27 11:17:34;;;;;;;13.10;8.50;;;3.00;99.90;;;;;;5043482;28;20410;-59
2023/11/27 11:20:14;;;;;;;10.30;7.67;;;2.90;99.90;;;;;;5045124;28;20179;-62
2023/11/27 11:22:58;;;;;;;11.87;7.77;;;2.80;99.90;;;;;;5047749;28;20414;-61
2023/11/27 11:25:55;;;;;;;10.37;7.50;;;2.90;99.90;;;;;;5046506;28;20884;-62
2023/11/27 11:28:33;;;;;;;10.03;7.90;;;2.70;99.90;;;;;;5028740;28;20512;-59
2023/11/27 11:31:09;;;;;;;12.70;7.90;;;2.70;99.90;;;;;;5047589;28;20460;-61
2023/11/27 11:33:35;;;;;;;11.90;8.27;;;2.80;99.90;;;;;;5042163;28;20424;-62
2023/11/27 11:36:00;;;;;;;9.70;6.90;;;2.70;99.90;;;;;;5032677;28;20916;-60
2023/11/27 11:38:30;;;;;;;9.27;6.90;;;2.60;99.90;;;;;;5047595;28;20535;-61
2023/11/27 11:40:56;;;;;;;10.50;7.77;;;2.70;99.90;;;;;;5046089;28;20195;-62
2023/11/27 11:43:22;;;;;;;10.37;6.60;;;2.70;99.90;;;;;;5048140;28;20524;-60
2023/11/27 11:45:49;;;;;;;10.83;8.27;;;2.50;99.90;;;;;;5045710;28;20793;-61
2023/11/27 11:48:18;;;;;;;12.30;6.50;;;2.40;99.90;;;;;;5049220;28;20436;-62
2023/11/27 11:50:46;;;;;;;8.57;7.67;;;2.40;99.90;;;;;;5049204;28;20985;-59
2023/11/27 11:53:21;;;;;;;9.50;6.87;;;2.40;99.90;;;;;;5047952;28;20469;-60
2023/11/27 11:55:50;;;;;;;10.33;8.10;;;2.50;99.90;;;;;;5048452;28;20429;-61
2023/11/27 11:58:19;;;;;;;8.27;6.30;;;2.50;99.90;;;;;;5034784;28;20405;-60
2023/11/27 12:00:46;;;;;;;11.27;8.40;;;2.50;99.90;;;;;;5048874;28;20485;-58
2023/11/27 12:03:16;;;;;;;12.03;8.23;;;2.50;99.90;;;;;;5051412;28;20406;-61
2023/11/27 12:05:53;;;;;;;9.87;7.40;;;2.50;99.90;;;;;;5051561;28;20409;-63
2023/11/27 12:08:21;;;;;;;10.83;7.80;;;2.40;99.90;;;;;;5048062;28;20857;-58
2023/11/27 12:10:48;;;;;;;10.63;7.43;;;2.40;99.90;;;;;;5046889;28;20457;-60
2023/11/27 12:13:14;;;;;;;9.57;6.90;;;2.40;99.90;;;;;;5042993;28;20824;-61
2023/11/27 12:15:40;;;;;;;8.60;6.57;;;2.40;99.90;;;;;;5046875;28;20411;-63
2023/11/27 12:18:09;;;;;;;8.77;7.63;;;2.30;99.90;;;;;;5048508;28;20729;-58
2023/11/27 12:20:37;;;;;;;8.93;7.10;;;2.20;99.90;;;;;;5043939;28;20225;-60
2023/11/27 12:23:06;;;;;;;10.90;7.80;;;2.30;99.90;;;;;;5049802;28;20433;-61
2023/11/27 12:25:32;;;;;;;7.73;6.93;;;2.20;99.90;;;;;;5043243;28;20410;-57
2023/11/27 12:27:58;;;;;;;8.87;7.00;;;2.20;99.90;;;;;;5049809;28;20467;-64
2023/11/27 12:30:24;;;;;;;13.23;8.00;;;2.30;99.90;;;;;;5041775;28;20186;-62
2023/11/27 12:32:50;;;;;;;7.13;6.40;;;2.20;99.90;;;;;;5045621;28;20426;-60
2023/11/27 12:35:18;;;;;;;9.63;7.13;;;2.20;99.90;;;;;;5036468;28;20186;-61
2023/11/27 12:37:48;;;;;;;9.57;6.77;;;2.20;99.90;;;;;;5036259;28;20513;-61
2023/11/27 12:40:18;;;;;;;11.50;8.80;;;2.30;99.90;;;;;;5047754;28;20429;-60
2023/11/27 12:42:48;;;;;;;14.70;9.00;;;2.30;99.90;;;;;;5049731;28;20438;-59
2023/11/27 12:45:20;;;;;;;18.90;10.40;;;2.30;99.90;;;;;;5041214;28;20413;-61
2023/11/27 12:47:50;;;;;;;12.40;8.27;;;2.20;99.90;;;;;;5036592;28;20427;-62
2023/11/27 12:50:29;;;;;;;13.33;8.40;;;2.20;99.90;;;;;;5038592;28;20917;-62
2023/11/27 12:53:09;;;;;;;9.20;7.17;;;2.20;99.90;;;;;;5033511;28;20410;-62